Time;durP1;ratioP1;P1;durP2;ratioP2;P2;SDS_P1;SDS_P2;PMS_P1;PMS_P2;Temp;Humidity;BMP_temperature;BMP_pressure;BME280_temperature;BME280_humidity;BME280_pressure;Samples;Min_cycle;Max_cycle;Signal;HPM_P1;HPM_P2
2022/09/26 00:01:20;;;;;;;;;;;11.30;99.90;;;;;;5037427;28;19971;-68
2022/09/26 00:03:47;;;;;;;;;;;11.30;99.90;;;;;;5020150;28;20087;-68
2022/09/26 00:06:15;;;;;;;;;;;11.30;99.90;;;;;;5022211;28;19929;-68
2022/09/26 00:08:40;;;;;;;;;;;11.40;99.90;;;;;;5039840;28;20273;-67
2022/09/26 00:11:07;;;;;;;;;;;11.30;99.90;;;;;;5040422;28;19932;-68
2022/09/26 00:13:34;;;;;;;;;;;11.30;99.90;;;;;;5038786;28;19929;-68
2022/09/26 00:15:59;;;;;;;;;;;11.40;99.90;;;;;;5038681;28;19920;-68
2022/09/26 00:18:25;;;;;;;;;;;11.30;99.90;;;;;;5040475;28;20172;-68
2022/09/26 00:20:50;;;;;;;;;;;11.40;99.90;;;;;;5038330;28;19916;-68
2022/09/26 00:23:16;;;;;;;;;;;11.40;99.90;;;;;;5038391;28;20379;-68
2022/09/26 00:25:46;;;;;;;;;;;11.40;99.90;;;;;;5036725;28;20263;-68
2022/09/26 00:28:11;;;;;;;;;;;11.50;99.90;;;;;;5037241;28;19986;-68
2022/09/26 00:30:37;;;;;;;;;;;11.50;99.90;;;;;;5037956;28;20253;-67
2022/09/26 00:33:02;;;;;;;;;;;11.50;99.90;;;;;;5038217;28;19956;-68
2022/09/26 00:35:28;;;;;;;;;;;11.50;99.90;;;;;;5039118;28;20314;-68
2022/09/26 00:37:54;;;;;;;;;;;11.50;99.90;;;;;;5022100;28;19956;-68
2022/09/26 00:40:19;;;;;;;;;;;11.60;99.90;;;;;;5038291;28;20460;-68
2022/09/26 00:42:45;;;;;;;;;;;11.60;99.90;;;;;;5044819;28;19919;-68
2022/09/26 00:45:11;;;;;;;;;;;11.50;99.90;;;;;;5035678;28;19983;-67
2022/09/26 00:47:43;;;;;;;;;;;11.50;99.90;;;;;;5037995;28;20300;-68
2022/09/26 00:50:09;;;;;;;;;;;11.50;99.90;;;;;;5038216;28;20351;-68
2022/09/26 00:53:01;;;;;;;;;;;11.60;99.90;;;;;;5038713;28;19923;-68
2022/09/26 00:55:29;;;;;;;;;;;11.60;99.90;;;;;;5023918;28;19943;-67
2022/09/26 00:58:06;;;;;;;;;;;11.70;99.90;;;;;;5037730;28;19980;-67
2022/09/26 01:00:32;;;;;;;;;;;11.80;99.90;;;;;;5035129;28;19943;-67
2022/09/26 01:02:58;;;;;;;;;;;11.80;99.90;;;;;;5021976;28;20364;-68
2022/09/26 01:05:24;;;;;;;;;;;11.80;99.90;;;;;;5028221;28;19987;-67
2022/09/26 01:07:51;;;;;;;;;;;11.80;99.90;;;;;;5037258;28;19921;-67
2022/09/26 01:10:17;;;;;;;;;;;11.80;99.90;;;;;;5039670;28;19919;-67
2022/09/26 01:12:42;;;;;;;;;;;11.80;99.90;;;;;;5038502;28;20541;-67
2022/09/26 01:15:09;;;;;;;;;;;11.80;99.90;;;;;;5036947;28;19917;-68
2022/09/26 01:17:36;;;;;;;;;;;11.90;99.90;;;;;;5037803;28;19924;-68
2022/09/26 01:20:14;;;;;;;;;;;12.00;99.90;;;;;;5037657;28;19943;-68
2022/09/26 01:22:42;;;;;;;;;;;12.00;99.90;;;;;;5038379;28;19957;-67
2022/09/26 01:25:13;;;;;;;;;;;11.90;99.90;;;;;;5038147;28;19912;-67
2022/09/26 01:28:02;;;;;;;;;;;11.90;99.90;;;;;;5037261;28;20319;-68
2022/09/26 01:30:33;;;;;;;;;;;11.90;99.90;;;;;;5032326;28;20205;-67
2022/09/26 01:32:59;;;;;;;;;;;11.90;99.90;;;;;;5041851;28;20331;-67
2022/09/26 01:35:43;;;;;;;;;;;11.80;99.90;;;;;;5040357;28;19920;-68
2022/09/26 01:38:14;;;;;;;;;;;11.80;99.90;;;;;;5041187;28;20279;-68
2022/09/26 01:40:40;;;;;;;;;;;11.80;99.90;;;;;;5021292;28;20139;-68
2022/09/26 01:43:22;;;;;;;;;;;11.90;99.90;;;;;;5042174;28;20139;-68
2022/09/26 01:46:06;;;;;;;;;;;12.00;99.90;;;;;;5043661;28;19916;-68
2022/09/26 01:48:47;;;;;;;;;;;12.10;99.90;;;;;;5038658;28;19923;-68
2022/09/26 01:51:21;;;;;;;;;;;12.20;99.90;;;;;;5024734;28;19978;-68
2022/09/26 01:54:10;;;;;;;;;;;12.20;99.90;;;;;;5043240;28;19917;-68
2022/09/26 01:56:36;;;;;;;;;;;12.30;99.90;;;;;;5043691;28;19917;-68
2022/09/26 01:59:05;;;;;;;;;;;12.40;99.90;;;;;;5045083;28;20546;-68
2022/09/26 02:01:34;;;;;;;;;;;12.50;99.90;;;;;;5039222;28;19916;-68
2022/09/26 02:04:07;;;;;;;;;;;12.50;99.90;;;;;;5042919;28;20422;-68
2022/09/26 02:06:59;;;;;;;;;;;12.50;99.90;;;;;;5042422;28;19920;-68
2022/09/26 02:09:27;;;;;;;;;;;12.60;99.90;;;;;;5043519;28;19913;-68
2022/09/26 02:11:54;;;;;;;;;;;12.70;99.90;;;;;;5041047;28;19917;-67
2022/09/26 02:14:26;;;;;;;;;;;12.70;99.90;;;;;;5031103;28;20498;-67
2022/09/26 02:16:54;;;;;;;;;;;12.70;99.90;;;;;;5043355;28;19984;-68
2022/09/26 02:19:23;;;;;;;;;;;12.70;99.90;;;;;;5042971;28;19925;-68
2022/09/26 02:21:49;;;;;;;;;;;12.70;99.90;;;;;;5042634;28;20007;-68
2022/09/26 02:24:14;;;;;;;;;;;12.70;99.90;;;;;;5039302;28;19935;-68
2022/09/26 02:26:41;;;;;;;;;;;12.80;99.90;;;;;;5042208;28;20276;-68
2022/09/26 02:29:07;;;;;;;;;;;12.80;99.90;;;;;;5042353;28;19917;-67
2022/09/26 02:31:35;;;;;;;;;;;12.80;99.90;;;;;;5043082;28;20492;-68
2022/09/26 02:34:01;;;;;;;;;;;12.80;99.90;;;;;;5041246;28;19912;-68
2022/09/26 02:36:27;;;;;;;;;;;12.90;99.90;;;;;;5041355;28;20730;-68
2022/09/26 02:38:52;;;;;;;;;;;12.90;99.90;;;;;;5042027;28;20457;-68
2022/09/26 02:41:21;;;;;;;;;;;12.90;99.90;;;;;;5042128;28;19996;-68
2022/09/26 02:43:56;;;;;;;;;;;12.90;99.90;;;;;;5042157;28;19917;-68
2022/09/26 02:46:38;;;;;;;;;;;12.90;99.90;;;;;;5041601;28;19997;-67
2022/09/26 02:49:07;;;;;;;;;;;12.90;99.90;;;;;;5042894;28;19917;-68
2022/09/26 02:51:41;;;;;;;;;;;12.90;99.90;;;;;;5041413;28;20417;-67
2022/09/26 02:54:21;;;;;;;;;;;12.90;99.90;;;;;;5043080;28;20364;-68
2022/09/26 02:56:54;;;;;;;;;;;12.90;99.90;;;;;;5043306;28;19919;-68
2022/09/26 02:59:36;;;;;;;;;;;12.90;99.90;;;;;;5041243;28;19982;-68
2022/09/26 03:02:05;;;;;;;;;;;12.90;99.90;;;;;;5032458;28;19917;-68
2022/09/26 03:04:49;;;;;;;;;;;12.90;99.90;;;;;;5041119;28;19928;-68
2022/09/26 03:07:19;;;;;;;;;;;12.90;99.90;;;;;;5043008;28;20019;-68
2022/09/26 03:09:46;;;;;;;;;;;12.90;99.90;;;;;;5025661;28;19927;-68
2022/09/26 03:12:12;;;;;;;;;;;12.90;99.90;;;;;;5032574;28;19916;-68
2022/09/26 03:14:40;;;;;;;;;;;12.90;99.90;;;;;;5039893;28;19960;-67
2022/09/26 03:17:06;;;;;;;;;;;12.90;99.90;;;;;;5042729;28;19974;-67
2022/09/26 03:19:32;;;;;;;;;;;12.90;99.90;;;;;;5041303;28;20371;-68
2022/09/26 03:21:58;;;;;;;;;;;12.90;99.90;;;;;;5042174;28;19939;-68
2022/09/26 03:24:25;;;;;;;;;;;12.90;99.90;;;;;;5040984;28;20189;-68
2022/09/26 03:26:51;;;;;;;;;;;12.90;99.90;;;;;;5025446;28;19923;-67
2022/09/26 03:29:18;;;;;;;;;;;12.80;99.90;;;;;;5022959;28;19921;-67
2022/09/26 03:31:44;;;;;;;;;;;12.80;99.90;;;;;;5051703;28;19924;-68
2022/09/26 03:34:10;;;;;;;;;;;12.80;99.90;;;;;;5062141;28;19912;-68
2022/09/26 03:36:35;;;;;;;;;;;12.80;99.90;;;;;;5045358;28;20316;-68
2022/09/26 03:39:01;;;;;;;;;;;12.80;99.90;;;;;;5039934;28;19975;-67
2022/09/26 03:41:26;;;;;;;;;;;12.80;99.90;;;;;;5043283;28;19970;-67
2022/09/26 03:43:52;;;;;;;;;;;12.90;99.90;;;;;;5042636;28;20427;-68
2022/09/26 03:46:18;;;;;;;;;;;12.90;99.90;;;;;;5041803;28;19947;-68
2022/09/26 03:48:43;;;;;;;;;;;13.00;99.90;;;;;;5042425;28;20188;-67
2022/09/26 03:51:12;;;;;;;;;;;13.10;99.90;;;;;;5025023;28;19921;-67
2022/09/26 03:53:39;;;;;;;;;;;13.20;99.90;;;;;;5033412;28;19923;-68
2022/09/26 03:56:06;;;;;;;;;;;13.30;99.90;;;;;;5041512;28;20004;-68
2022/09/26 03:58:31;;;;;;;;;;;13.30;99.90;;;;;;5041976;28;19963;-68
2022/09/26 04:01:07;;;;;;;;;;;13.40;99.90;;;;;;5042278;28;19913;-67
2022/09/26 04:03:36;;;;;;;;;;;13.40;99.90;;;;;;5040844;28;20428;-67
2022/09/26 04:06:03;;;;;;;;;;;13.50;99.90;;;;;;5042050;28;19924;-68
2022/09/26 04:08:29;;;;;;;;;;;13.60;99.90;;;;;;5042243;28;20705;-68
2022/09/26 04:11:21;;;;;;;;;;;13.60;99.90;;;;;;5039327;28;20035;-68
2022/09/26 04:13:47;;;;;;;;;;;13.70;99.90;;;;;;5036039;28;19917;-67
2022/09/26 04:16:13;;;;;;;;;;;13.70;99.90;;;;;;5038433;28;19927;-67
2022/09/26 04:18:38;;;;;;;;;;;13.70;99.90;;;;;;5041662;28;19916;-67
2022/09/26 04:21:05;;;;;;;;;;;13.70;99.90;;;;;;5041627;28;20391;-67
2022/09/26 04:23:32;;;;;;;;;;;13.70;99.90;;;;;;5036574;28;19924;-67
2022/09/26 04:26:05;;;;;;;;;;;13.60;99.90;;;;;;5039762;28;20318;-68
2022/09/26 04:28:30;;;;;;;;;;;13.60;99.90;;;;;;5040603;28;20781;-67
2022/09/26 04:30:56;;;;;;;;;;;13.60;99.90;;;;;;5040707;28;20028;-68
2022/09/26 04:33:22;;;;;;;;;;;13.50;99.90;;;;;;5031799;28;19917;-68
2022/09/26 04:35:47;;;;;;;;;;;13.40;99.90;;;;;;5017396;28;19917;-67
2022/09/26 04:38:14;;;;;;;;;;;13.40;99.90;;;;;;5016440;28;19917;-67
2022/09/26 04:40:39;;;;;;;;;;;13.40;99.90;;;;;;5019926;28;20001;-68
2022/09/26 04:43:05;;;;;;;;;;;13.30;99.90;;;;;;5001835;28;19917;-67
2022/09/26 04:45:30;;;;;;;;;;;13.30;99.90;;;;;;5035188;28;19917;-68
2022/09/26 04:47:56;;;;;;;;;;;13.30;99.90;;;;;;5038803;28;20081;-68
2022/09/26 04:50:21;;;;;;;;;;;13.20;99.90;;;;;;5039412;28;19919;-67
2022/09/26 04:52:47;;;;;;;;;;;13.20;99.90;;;;;;5039453;28;19909;-67
2022/09/26 04:55:12;;;;;;;;;;;13.20;99.90;;;;;;5037773;28;19924;-67
2022/09/26 04:57:38;;;;;;;;;;;13.20;99.90;;;;;;5038397;28;19909;-68
2022/09/26 05:00:06;;;;;;;;;;;13.10;99.90;;;;;;5036435;28;20027;-67
2022/09/26 05:02:32;;;;;;;;;;;13.10;99.90;;;;;;5037986;28;20347;-67
2022/09/26 05:04:58;;;;;;;;;;;13.00;99.90;;;;;;5038693;28;19920;-67
2022/09/26 05:07:26;;;;;;;;;;;13.00;99.90;;;;;;5020257;28;19922;-67
2022/09/26 05:09:52;;;;;;;;;;;13.00;99.90;;;;;;5040788;28;19916;-68
2022/09/26 05:12:18;;;;;;;;;;;12.90;99.90;;;;;;5039600;28;20367;-67
2022/09/26 05:14:43;;;;;;;;;;;12.90;99.90;;;;;;5036724;28;20384;-68
2022/09/26 05:17:10;;;;;;;;;;;12.90;99.90;;;;;;5040669;28;19996;-68
2022/09/26 05:19:36;;;;;;;;;;;12.90;99.90;;;;;;5041272;28;20275;-69
2022/09/26 05:22:01;;;;;;;;;;;12.80;99.90;;;;;;5040827;28;19917;-69
2022/09/26 05:27:14;;;;;;;;;;;12.80;99.90;;;;;;5008013;28;20049;-68
2022/09/26 05:29:39;;;;;;;;;;;12.80;99.90;;;;;;5038631;28;19912;-69
2022/09/26 05:32:05;;;;;;;;;;;12.80;99.90;;;;;;5039671;28;19961;-68
2022/09/26 05:34:30;;;;;;;;;;;12.90;99.90;;;;;;5041507;28;19917;-68
2022/09/26 05:36:56;;;;;;;;;;;12.90;99.90;;;;;;5042602;28;20461;-68
2022/09/26 05:42:05;;;;;;;;;;;12.90;99.90;;;;;;5041742;28;20421;-67
2022/09/26 05:44:31;;;;;;;;;;;13.00;99.90;;;;;;5025947;28;20186;-68
2022/09/26 05:46:57;;;;;;;;;;;13.00;99.90;;;;;;5023957;28;19928;-68
2022/09/26 05:49:24;;;;;;;;;;;13.00;99.90;;;;;;5041671;28;19920;-68
2022/09/26 05:51:49;;;;;;;;;;;13.00;99.90;;;;;;5040813;28;19974;-68
2022/09/26 05:54:15;;;;;;;;;;;13.00;99.90;;;;;;5041926;28;19912;-68
2022/09/26 05:56:41;;;;;;;;;;;13.10;99.90;;;;;;5041151;28;19913;-68
2022/09/26 05:59:06;;;;;;;;;;;13.10;99.90;;;;;;5040407;28;19973;-68
2022/09/26 06:01:32;;;;;;;;;;;13.10;99.90;;;;;;5039018;28;20331;-68
2022/09/26 06:03:58;;;;;;;;;;;13.20;99.90;;;;;;5038202;28;20189;-68
2022/09/26 06:06:24;;;;;;;;;;;13.20;99.90;;;;;;5040163;28;20103;-68
2022/09/26 06:08:49;;;;;;;;;;;13.30;99.90;;;;;;5019796;28;19954;-68
2022/09/26 06:11:17;;;;;;;;;;;13.20;99.90;;;;;;5044044;28;19912;-68
2022/09/26 06:13:44;;;;;;;;;;;13.30;99.90;;;;;;5039685;28;20062;-68
2022/09/26 06:16:11;;;;;;;;;;;13.30;99.90;;;;;;5021490;28;19921;-67
2022/09/26 06:18:37;;;;;;;;;;;13.40;99.90;;;;;;5020367;28;19917;-68
2022/09/26 06:21:03;;;;;;;;;;;13.40;99.90;;;;;;5019110;28;19935;-68
2022/09/26 06:23:30;;;;;;;;;;;13.40;99.90;;;;;;5031256;28;19921;-68
2022/09/26 06:25:55;;;;;;;;;;;13.40;99.90;;;;;;5024304;28;20004;-68
2022/09/26 06:28:21;;;;;;;;;;;13.40;99.90;;;;;;5039101;28;20355;-68
2022/09/26 06:30:46;;;;;;;;;;;13.40;99.90;;;;;;5018767;28;19923;-68
2022/09/26 06:33:12;;;;;;;;;;;13.50;99.90;;;;;;5037145;28;19916;-68
2022/09/26 06:35:37;;;;;;;;;;;13.50;99.90;;;;;;5040819;28;19917;-68
2022/09/26 06:38:04;;;;;;;;;;;13.50;99.90;;;;;;5037533;28;19924;-68
2022/09/26 06:40:32;;;;;;;;;;;13.50;99.90;;;;;;5039938;28;19925;-68
2022/09/26 06:42:58;;;;;;;;;;;13.50;99.90;;;;;;5038536;28;19920;-68
2022/09/26 06:45:23;;;;;;;;;;;13.60;99.90;;;;;;5035929;28;19921;-68
2022/09/26 06:47:49;;;;;;;;;;;13.60;99.90;;;;;;5040325;28;19912;-68
2022/09/26 06:50:15;;;;;;;;;;;13.60;99.90;;;;;;5040189;28;19913;-69
2022/09/26 06:52:42;;;;;;;;;;;13.70;99.90;;;;;;5038984;28;20594;-69
2022/09/26 06:55:09;;;;;;;;;;;13.70;99.90;;;;;;5045597;28;19953;-68
2022/09/26 06:57:38;;;;;;;;;;;13.70;99.90;;;;;;5038233;28;20315;-68
2022/09/26 07:00:05;;;;;;;;;;;13.70;99.90;;;;;;5035311;28;20434;-68
2022/09/26 07:02:31;;;;;;;;;;;13.70;99.90;;;;;;5037056;28;20372;-68
2022/09/26 07:04:56;;;;;;;;;;;13.70;99.90;;;;;;5036519;28;19931;-69
2022/09/26 07:07:22;;;;;;;;;;;13.80;99.90;;;;;;5031994;28;19936;-69
2022/09/26 07:09:47;;;;;;;;;;;13.90;99.90;;;;;;5025895;28;20331;-68
2022/09/26 07:12:14;;;;;;;;;;;14.00;99.90;;;;;;5030698;28;19967;-68
2022/09/26 07:14:39;;;;;;;;;;;14.00;99.90;;;;;;5034466;28;19917;-69
2022/09/26 07:17:05;;;;;;;;;;;14.00;99.90;;;;;;5033333;28;20368;-68
2022/09/26 07:19:30;;;;;;;;;;;14.10;99.90;;;;;;5033253;28;19977;-69
2022/09/26 07:21:56;;;;;;;;;;;14.20;99.90;;;;;;5032279;28;20693;-68
2022/09/26 07:24:21;;;;;;;;;;;14.20;99.90;;;;;;5031674;28;19916;-68
2022/09/26 07:26:47;;;;;;;;;;;14.30;99.90;;;;;;5027407;28;19967;-70
2022/09/26 07:29:12;;;;;;;;;;;14.30;99.90;;;;;;5031104;28;20136;-69
2022/09/26 07:31:38;;;;;;;;;;;14.40;99.90;;;;;;5027756;28;19921;-68
2022/09/26 07:34:04;;;;;;;;;;;14.30;99.90;;;;;;5035036;28;19932;-69
2022/09/26 07:36:29;;;;;;;;;;;14.30;99.90;;;;;;5031622;28;19917;-70
2022/09/26 07:38:55;;;;;;;;;;;14.30;99.90;;;;;;5029414;28;20447;-69
2022/09/26 07:41:20;;;;;;;;;;;14.30;99.90;;;;;;5028801;28;21196;-68
2022/09/26 07:43:46;;;;;;;;;;;14.20;99.90;;;;;;5030520;28;19917;-68
2022/09/26 07:51:40;;;;;;;;;;;14.20;99.90;;;;;;5027934;28;19962;-69
2022/09/26 07:54:05;;;;;;;;;;;14.30;99.90;;;;;;5034295;28;19921;-69
2022/09/26 07:56:34;;;;;;;;;;;14.50;99.90;;;;;;5036157;28;19955;-68
2022/09/26 07:59:02;;;;;;;;;;;14.80;99.90;;;;;;5038586;28;19932;-68
2022/09/26 08:01:28;;;;;;;;;;;14.90;99.90;;;;;;5036845;28;19923;-69
2022/09/26 08:03:56;;;;;;;;;;;14.90;99.90;;;;;;5031043;28;20286;-68
2022/09/26 08:06:22;;;;;;;;;;;14.90;99.90;;;;;;5036592;28;19936;-70
2022/09/26 08:08:51;;;;;;;;;;;14.80;99.90;;;;;;5033960;28;19916;-70
2022/09/26 08:11:17;;;;;;;;;;;14.70;99.90;;;;;;5027064;28;19917;-68
2022/09/26 08:13:43;;;;;;;;;;;14.60;99.90;;;;;;5026970;28;19916;-68
2022/09/26 08:16:09;;;;;;;;;;;14.60;99.90;;;;;;5044789;28;20866;-68
2022/09/26 08:18:34;;;;;;;;;;;14.80;99.90;;;;;;5016751;28;19917;-68
2022/09/26 08:21:04;;;;;;;;;;;16.10;99.90;;;;;;5016520;28;19913;-68
2022/09/26 08:23:30;;;;;;;;;;;20.70;99.90;;;;;;5021454;28;20007;-69
2022/09/26 08:25:56;;;;;;;;;;;24.30;99.90;;;;;;5035113;28;20103;-69
2022/09/26 08:28:22;;;;;;;;;;;25.40;98.60;;;;;;5015089;28;19917;-69
2022/09/26 08:30:48;;;;;;;;;;;25.30;94.10;;;;;;5036612;28;20292;-69
2022/09/26 08:33:13;;;;;;;;;;;24.80;96.50;;;;;;5037331;28;19927;-69
2022/09/26 08:35:39;;;;;;;;;;;23.30;99.10;;;;;;5037275;28;20004;-68
2022/09/26 08:38:08;;;;;;;;;;;22.00;99.90;;;;;;5037380;28;20399;-69
2022/09/26 08:40:37;;;;;;;;;;;23.00;99.90;;;;;;5020103;28;19925;-69
2022/09/26 08:43:24;;;;;;;;;;;25.10;96.90;;;;;;5035242;28;19917;-69
2022/09/26 08:48:34;;;;;;;;;;;28.20;83.10;;;;;;5037710;28;19974;-69
2022/09/26 08:51:11;;;;;;;;;;;29.20;78.30;;;;;;5038544;28;19952;-69
2022/09/26 08:53:43;;;;;;;;;;;28.70;69.70;;;;;;5037965;28;19924;-70
2022/09/26 08:56:16;;;;;;;;;;;27.10;74.50;;;;;;5038816;28;20178;-69
2022/09/26 08:58:44;;;;;;;;;;;25.60;75.40;;;;;;5036984;28;19974;-69
2022/09/26 09:01:18;;;;;;;;;;;23.60;87.70;;;;;;5035411;28;20027;-69
2022/09/26 09:03:52;;;;;;;;;;;22.80;96.00;;;;;;5026491;28;19923;-69
2022/09/26 09:06:17;;;;;;;;;;;23.80;93.30;;;;;;5037872;28;20003;-68
2022/09/26 09:08:45;;;;;;;;;;;24.70;88.30;;;;;;5037772;28;20395;-69
2022/09/26 09:11:10;;;;;;;;;;;25.10;83.80;;;;;;5035952;28;19924;-69
2022/09/26 09:14:00;;;;;;;;;;;24.60;84.30;;;;;;5034770;28;20004;-69
2022/09/26 09:16:50;;;;;;;;;;;23.70;85.30;;;;;;5036953;28;19913;-68
2022/09/26 09:19:35;;;;;;;;;;;23.10;89.10;;;;;;5038035;28;20311;-69
2022/09/26 09:22:00;;;;;;;;;;;22.60;93.90;;;;;;5036311;28;20019;-68
2022/09/26 09:24:41;;;;;;;;;;;21.40;97.50;;;;;;5054474;28;20003;-68
2022/09/26 09:27:10;;;;;;;;;;;20.70;99.90;;;;;;5053284;28;19935;-68
2022/09/26 09:29:56;;;;;;;;;;;20.60;99.60;;;;;;5035168;28;19923;-68
2022/09/26 09:32:29;;;;;;;;;;;22.30;99.90;;;;;;5036741;28;20047;-69
2022/09/26 09:34:54;;;;;;;;;;;24.60;91.20;;;;;;5038624;28;20347;-69
2022/09/26 09:37:22;;;;;;;;;;;26.10;81.80;;;;;;5038686;28;19913;-69
2022/09/26 09:39:49;;;;;;;;;;;27.00;77.00;;;;;;5038756;28;20329;-69
2022/09/26 09:42:17;;;;;;;;;;;26.80;70.20;;;;;;5038549;28;19919;-69
2022/09/26 09:45:04;;;;;;;;;;;27.30;73.20;;;;;;5037008;28;19923;-69
2022/09/26 09:47:33;;;;;;;;;;;28.00;70.50;;;;;;5037935;28;20027;-68
2022/09/26 09:49:59;;;;;;;;;;;28.20;65.90;;;;;;5038483;28;20294;-69
2022/09/26 09:52:24;;;;;;;;;;;28.10;66.00;;;;;;5041658;28;19913;-69
2022/09/26 09:54:49;;;;;;;;;;;28.00;64.40;;;;;;5041967;28;19912;-69
2022/09/26 09:57:24;;;;;;;;;;;28.30;60.80;;;;;;5041802;28;20703;-69
2022/09/26 09:59:49;;;;;;;;;;;28.20;61.90;;;;;;5041098;28;19987;-69
2022/09/26 10:02:23;;;;;;;;;;;28.00;62.40;;;;;;5042388;28;19912;-68
2022/09/26 10:05:09;;;;;;;;;;;27.70;63.50;;;;;;5038719;28;19929;-69
2022/09/26 10:07:35;;;;;;;;;;;26.40;67.20;;;;;;5028558;28;19913;-68
2022/09/26 10:10:00;;;;;;;;;;;24.40;72.40;;;;;;5039612;28;19917;-69
2022/09/26 10:12:29;;;;;;;;;;;23.30;77.20;;;;;;5039312;28;19912;-69
2022/09/26 10:14:57;;;;;;;;;;;21.90;86.50;;;;;;5037498;28;19917;-68
2022/09/26 10:17:22;;;;;;;;;;;22.20;90.40;;;;;;5042186;28;19954;-69
2022/09/26 10:19:48;;;;;;;;;;;22.80;91.20;;;;;;5041941;28;19963;-68
2022/09/26 10:22:16;;;;;;;;;;;24.90;81.40;;;;;;5040681;28;20364;-69
2022/09/26 10:24:44;;;;;;;;;;;26.00;76.70;;;;;;5038511;28;20488;-69
2022/09/26 10:27:12;;;;;;;;;;;26.90;69.40;;;;;;5035924;28;20465;-69
2022/09/26 10:29:39;;;;;;;;;;;26.80;67.80;;;;;;5040322;28;19917;-69
2022/09/26 10:32:05;;;;;;;;;;;25.50;67.70;;;;;;5012411;28;19917;-68
2022/09/26 10:34:31;;;;;;;;;;;24.80;71.30;;;;;;5031057;28;20012;-68
2022/09/26 10:37:17;;;;;;;;;;;25.20;70.10;;;;;;5040516;28;19975;-69
2022/09/26 10:42:35;;;;;;;;;;;26.80;65.60;;;;;;5038916;28;20521;-69
2022/09/26 10:45:10;;;;;;;;;;;27.50;63.00;;;;;;5039543;28;19912;-69
2022/09/26 10:47:36;;;;;;;;;;;27.70;58.20;;;;;;5041617;28;20175;-68
2022/09/26 10:50:06;;;;;;;;;;;27.70;60.10;;;;;;5039915;28;20406;-69
2022/09/26 10:52:33;;;;;;;;;;;27.20;57.50;;;;;;5023582;28;19963;-69
2022/09/26 10:54:58;;;;;;;;;;;26.90;60.20;;;;;;5041173;28;20387;-68
2022/09/26 10:57:27;;;;;;;;;;;25.60;61.30;;;;;;5039701;28;20013;-68
2022/09/26 10:59:54;;;;;;;;;;;24.10;68.00;;;;;;5038017;28;20035;-68
2022/09/26 11:02:21;;;;;;;;;;;23.60;69.20;;;;;;5038970;28;19924;-68
2022/09/26 11:07:34;;;;;;;;;;;23.20;67.20;;;;;;5037366;28;19928;-69
2022/09/26 11:10:11;;;;;;;;;;;24.00;71.40;;;;;;5035173;28;19923;-69
2022/09/26 11:12:38;;;;;;;;;;;24.90;66.50;;;;;;5038341;28;20344;-69
2022/09/26 11:15:09;;;;;;;;;;;25.40;65.60;;;;;;5038058;28;20313;-69
2022/09/26 11:17:43;;;;;;;;;;;25.20;62.20;;;;;;5039147;28;19944;-68
2022/09/26 11:20:16;;;;;;;;;;;24.70;64.50;;;;;;5020859;28;20331;-68
2022/09/26 11:22:46;;;;;;;;;;;23.70;63.90;;;;;;5018275;28;19921;-69
2022/09/26 11:25:15;;;;;;;;;;;23.10;68.90;;;;;;5018207;28;19913;-69
2022/09/26 11:27:48;;;;;;;;;;;23.00;73.20;;;;;;5018295;28;19913;-69
2022/09/26 11:30:19;;;;;;;;;;;22.80;71.50;;;;;;5029071;28;19932;-69
2022/09/26 11:32:49;;;;;;;;;;;22.50;68.50;;;;;;5040039;28;19913;-68
2022/09/26 11:35:16;;;;;;;;;;;21.50;73.60;;;;;;5040501;28;20354;-69
2022/09/26 11:37:49;;;;;;;;;;;20.90;79.80;;;;;;5051542;28;19962;-68
2022/09/26 11:40:16;;;;;;;;;;;20.90;76.80;;;;;;5034883;28;20040;-68
2022/09/26 11:42:53;;;;;;;;;;;20.70;82.10;;;;;;5032002;28;19920;-69
2022/09/26 11:45:26;;;;;;;;;;;20.70;86.10;;;;;;5038984;28;20387;-68
2022/09/26 11:47:51;;;;;;;;;;;20.40;81.50;;;;;;5040418;28;20033;-68
2022/09/26 11:50:17;;;;;;;;;;;20.30;87.60;;;;;;5029271;28;19964;-68
2022/09/26 11:52:48;;;;;;;;;;;20.90;91.80;;;;;;5027042;28;20375;-68
2022/09/26 11:55:17;;;;;;;;;;;21.00;88.40;;;;;;5040158;28;19927;-69
2022/09/26 11:57:52;;;;;;;;;;;20.80;90.50;;;;;;5039666;28;19913;-68
2022/09/26 12:00:26;;;;;;;;;;;20.00;89.70;;;;;;5038779;28;19969;-68
2022/09/26 12:03:18;;;;;;;;;;;19.00;90.60;;;;;;5040536;28;20035;-69
2022/09/26 12:05:59;;;;;;;;;;;18.10;99.90;;;;;;5039669;28;20230;-68
2022/09/26 12:08:35;;;;;;;;;;;17.30;99.90;;;;;;5039062;28;20435;-68
2022/09/26 12:11:00;;;;;;;;;;;16.70;99.90;;;;;;5037999;28;19960;-68
2022/09/26 12:13:39;;;;;;;;;;;16.30;99.90;;;;;;5038636;28;20289;-68
2022/09/26 12:16:13;;;;;;;;;;;16.20;99.90;;;;;;5037648;28;19925;-68
2022/09/26 12:18:42;;;;;;;;;;;16.30;99.90;;;;;;5039593;28;20883;-68
2022/09/26 12:21:21;;;;;;;;;;;16.50;99.90;;;;;;5039563;28;20376;-68
2022/09/26 12:23:50;;;;;;;;;;;16.60;99.90;;;;;;5037261;28;19924;-68
2022/09/26 12:26:16;;;;;;;;;;;16.60;99.90;;;;;;5037509;28;19913;-68
2022/09/26 12:28:48;;;;;;;;;;;16.60;99.90;;;;;;5037374;28;20031;-68
2022/09/26 12:31:13;;;;;;;;;;;16.70;99.90;;;;;;5036786;28;19917;-68
2022/09/26 12:33:51;;;;;;;;;;;16.90;99.90;;;;;;5039451;28;20288;-68
2022/09/26 12:36:20;;;;;;;;;;;17.60;99.90;;;;;;5038567;28;19921;-68
2022/09/26 12:38:45;;;;;;;;;;;18.30;99.90;;;;;;5039053;28;19920;-68
2022/09/26 12:41:23;;;;;;;;;;;18.60;99.90;;;;;;5039118;28;19970;-68
2022/09/26 12:44:01;;;;;;;;;;;18.50;99.90;;;;;;5038735;28;19916;-68
2022/09/26 12:46:27;;;;;;;;;;;18.20;99.90;;;;;;5039498;28;20067;-68
2022/09/26 12:49:00;;;;;;;;;;;18.10;99.90;;;;;;5038803;28;19992;-68
2022/09/26 12:51:45;;;;;;;;;;;17.90;99.90;;;;;;5037935;28;20354;-68
2022/09/26 12:54:17;;;;;;;;;;;17.40;99.90;;;;;;5037948;28;19917;-68
2022/09/26 12:56:42;;;;;;;;;;;16.80;99.90;;;;;;5020490;28;20137;-68
2022/09/26 12:59:13;;;;;;;;;;;16.20;99.90;;;;;;5037898;28;20384;-68
2022/09/26 13:01:48;;;;;;;;;;;15.60;99.90;;;;;;5032386;28;19972;-67
2022/09/26 13:04:23;;;;;;;;;;;15.20;99.90;;;;;;5018397;28;20039;-67
2022/09/26 13:07:02;;;;;;;;;;;15.30;99.90;;;;;;5019003;28;20103;-67
2022/09/26 13:09:40;;;;;;;;;;;15.40;99.90;;;;;;5018479;28;19937;-69
2022/09/26 13:12:15;;;;;;;;;;;15.70;99.90;;;;;;5035733;28;20009;-68
2022/09/26 13:14:41;;;;;;;;;;;16.50;99.90;;;;;;5035340;28;20311;-68
2022/09/26 13:17:09;;;;;;;;;;;17.10;99.90;;;;;;5036275;28;19917;-68
2022/09/26 13:19:42;;;;;;;;;;;17.40;99.90;;;;;;5037039;28;19932;-68
2022/09/26 13:22:07;;;;;;;;;;;17.30;99.90;;;;;;5036427;28;20010;-68
2022/09/26 13:24:39;;;;;;;;;;;17.00;99.90;;;;;;5037781;28;20383;-68
2022/09/26 13:27:16;;;;;;;;;;;16.70;99.90;;;;;;5038960;28;19917;-69
2022/09/26 13:29:43;;;;;;;;;;;16.40;99.90;;;;;;5042612;28;19916;-68
2022/09/26 13:32:14;;;;;;;;;;;16.20;99.90;;;;;;5040742;28;19912;-68
2022/09/26 13:35:01;;;;;;;;;;;16.00;99.90;;;;;;5041450;28;20396;-68
2022/09/26 13:37:27;;;;;;;;;;;15.80;99.90;;;;;;5040984;28;20557;-67
2022/09/26 13:39:58;;;;;;;;;;;15.70;99.90;;;;;;5039066;28;20398;-68
2022/09/26 13:42:31;;;;;;;;;;;15.80;99.90;;;;;;5041740;28;20292;-68
2022/09/26 13:45:21;;;;;;;;;;;16.20;99.90;;;;;;5040392;28;19977;-68
2022/09/26 13:47:59;;;;;;;;;;;16.80;99.90;;;;;;5042853;28;19958;-68
2022/09/26 13:50:36;;;;;;;;;;;17.30;99.90;;;;;;5035463;28;19928;-68
2022/09/26 13:53:12;;;;;;;;;;;17.90;99.90;;;;;;5043014;28;19913;-68
2022/09/26 13:55:37;;;;;;;;;;;18.20;99.90;;;;;;5048374;28;19916;-68
2022/09/26 13:58:20;;;;;;;;;;;18.30;99.90;;;;;;5061306;28;20348;-68
2022/09/26 14:00:52;;;;;;;;;;;18.30;99.90;;;;;;5061033;28;20390;-68
2022/09/26 14:03:17;;;;;;;;;;;18.40;99.90;;;;;;5055369;28;20054;-68
2022/09/26 14:05:43;;;;;;;;;;;18.40;99.90;;;;;;5028929;28;20099;-68
2022/09/26 14:11:13;;;;;;;;;;;18.40;99.90;;;;;;5041642;28;19931;-68
2022/09/26 14:13:39;;;;;;;;;;;18.80;99.90;;;;;;5039457;28;19917;-68
2022/09/26 14:16:24;;;;;;;;;;;19.40;99.90;;;;;;5006832;28;20336;-68
2022/09/26 14:19:05;;;;;;;;;;;19.40;99.90;;;;;;5020938;28;19960;-69
2022/09/26 14:21:35;;;;;;;;;;;19.60;99.90;;;;;;5023310;28;19954;-68
2022/09/26 14:24:24;;;;;;;;;;;19.80;99.90;;;;;;5030123;28;19924;-69
2022/09/26 14:26:55;;;;;;;;;;;19.90;98.20;;;;;;5023850;28;19917;-68
2022/09/26 14:29:32;;;;;;;;;;;19.90;98.90;;;;;;5039886;28;19913;-68
2022/09/26 14:32:09;;;;;;;;;;;19.60;96.10;;;;;;5020268;28;20260;-68
2022/09/26 14:34:47;;;;;;;;;;;19.30;99.90;;;;;;5038472;28;19989;-68
2022/09/26 14:37:23;;;;;;;;;;;19.00;99.90;;;;;;5040352;28;19969;-68
2022/09/26 14:39:50;;;;;;;;;;;18.70;99.90;;;;;;5040351;28;20021;-68
2022/09/26 14:42:25;;;;;;;;;;;18.40;99.90;;;;;;5041134;28;20412;-68
2022/09/26 14:45:16;;;;;;;;;;;18.30;99.90;;;;;;5038320;28;20258;-68
2022/09/26 14:47:46;;;;;;;;;;;18.20;99.90;;;;;;5036274;28;19920;-68
2022/09/26 14:50:20;;;;;;;;;;;17.90;99.90;;;;;;5041318;28;19916;-68
2022/09/26 14:52:57;;;;;;;;;;;17.80;99.90;;;;;;5040751;28;19913;-67